Hauptseite
METAR-TAF:

METAR-TAF

Flughäfen :

Bintulu, Malaysia

Breite: 03-12N, Länge: 113-02E, Höhe: 2 m

Beobachtung

Neuester Wetterbericht von vor 36 Minuten, um 19:00 UTC
Wind 4 kt aus Ost/Südost, variierte zwischen Ost und Süd/Südost
Temperatur 25°C
Luftfeuchtigkeit 100%
Luftdruck 1009 hPa
Sichtweite 10 km oder mehr
Leicht bewölkt in der Höhe von 1600 ft

METAR: WBGB 181900Z 12004KT 080V160 9999 FEW016 25/25 Q1009

Zeit: 03:36 (19:36 UTC)

Prognose

Neuester Wetterbericht von vor 2 Stunden und 36 Minuten, um 17:00 UTC
Gültige Prognose vom 18 um 18 UTC bis 19 um 18 UTC
Wind 3 kt aus unterschiedlichen Richtungen
Sichtweite 10 km oder mehr
Leicht bewölkt in der Höhe von 1600 ft

TAF: WBGB 181700Z 1818/1918 VRB03KT 9999 FEW016

Wetterbeobachtungen und Prognosen von mehr als 4000 Flughäfen (METAR und TAF Bericht).

Die verfügbaren Stationen werden durch gelbe und rote Markierungen auf der Karte dargestellt.

Führen Sie die Maus auf sie, um den Namen der Station zu sehen.

Darauf klicken, um die Beobachtung von Wetterbeobachtungen und Prognosen zu sehen.

Um die Karte zu ändern : klicken Sie auf den grünen Tasten mit einem schwarzen Kreuz Zum Vergrößern, auf den grünen Button mit einem Gedankenstrich zu verkleinern, oder auf die grünen Pfeile für benachbarte Karten.


METAR-TAF: